sensor_id;sensor_type;location;lat;lon;timestamp;temperature;humidity
24632;DHT22;59977;48.782;9.190;2024-01-30T00:01:53;6.40;99.90
24632;DHT22;59977;48.782;9.190;2024-01-30T00:04:19;6.40;99.90
24632;DHT22;59977;48.782;9.190;2024-01-30T00:06:45;6.40;99.90
24632;DHT22;59977;48.782;9.190;2024-01-30T00:09:11;6.30;99.90
24632;DHT22;59977;48.782;9.190;2024-01-30T00:11:39;6.30;99.90
24632;DHT22;59977;48.782;9.190;2024-01-30T00:14:05;6.20;99.90
24632;DHT22;59977;48.782;9.190;2024-01-30T00:16:31;6.10;99.90
24632;DHT22;59977;48.782;9.190;2024-01-30T00:18:57;6.10;99.90
24632;DHT22;59977;48.782;9.190;2024-01-30T00:21:22;6.10;99.90
24632;DHT22;59977;48.782;9.190;2024-01-30T00:23:48;6.10;99.90
24632;DHT22;59977;48.782;9.190;2024-01-30T00:26:14;6.20;99.90
24632;DHT22;59977;48.782;9.190;2024-01-30T00:28:41;6.40;99.90
24632;DHT22;59977;48.782;9.190;2024-01-30T00:31:07;6.10;99.90
24632;DHT22;59977;48.782;9.190;2024-01-30T00:33:32;6.10;99.90
24632;DHT22;59977;48.782;9.190;2024-01-30T00:35:58;6.00;99.90
24632;DHT22;59977;48.782;9.190;2024-01-30T00:38:24;6.00;99.90
24632;DHT22;59977;48.782;9.190;2024-01-30T00:40:49;6.30;99.90
24632;DHT22;59977;48.782;9.190;2024-01-30T00:43:15;6.00;99.90
24632;DHT22;59977;48.782;9.190;2024-01-30T00:45:41;6.00;99.90
24632;DHT22;59977;48.782;9.190;2024-01-30T00:48:07;6.00;99.90
24632;DHT22;59977;48.782;9.190;2024-01-30T00:50:32;6.10;99.90
24632;DHT22;59977;48.782;9.190;2024-01-30T00:52:58;6.10;99.90
24632;DHT22;59977;48.782;9.190;2024-01-30T00:55:24;6.10;99.90
24632;DHT22;59977;48.782;9.190;2024-01-30T00:57:49;6.10;99.90
24632;DHT22;59977;48.782;9.190;2024-01-30T01:00:15;6.10;99.90
24632;DHT22;59977;48.782;9.190;2024-01-30T01:02:43;6.10;99.90
24632;DHT22;59977;48.782;9.190;2024-01-30T01:05:09;6.00;99.90
24632;DHT22;59977;48.782;9.190;2024-01-30T01:07:35;6.10;99.90
24632;DHT22;59977;48.782;9.190;2024-01-30T01:10:01;6.00;99.90
24632;DHT22;59977;48.782;9.190;2024-01-30T01:12:26;6.00;99.90
24632;DHT22;59977;48.782;9.190;2024-01-30T01:14:52;6.00;99.90
24632;DHT22;59977;48.782;9.190;2024-01-30T01:17:18;6.00;99.90
24632;DHT22;59977;48.782;9.190;2024-01-30T01:19:44;6.00;99.90
24632;DHT22;59977;48.782;9.190;2024-01-30T01:22:10;6.50;99.90
24632;DHT22;59977;48.782;9.190;2024-01-30T01:24:36;6.00;99.90
24632;DHT22;59977;48.782;9.190;2024-01-30T01:27:02;6.00;99.90
24632;DHT22;59977;48.782;9.190;2024-01-30T01:29:28;5.90;99.90
24632;DHT22;59977;48.782;9.190;2024-01-30T01:31:56;5.90;99.90
24632;DHT22;59977;48.782;9.190;2024-01-30T01:34:22;5.90;99.90
24632;DHT22;59977;48.782;9.190;2024-01-30T01:36:49;6.10;99.90
24632;DHT22;59977;48.782;9.190;2024-01-30T01:39:15;5.90;99.90
24632;DHT22;59977;48.782;9.190;2024-01-30T01:41:41;5.90;99.90
24632;DHT22;59977;48.782;9.190;2024-01-30T01:44:08;6.50;99.90
24632;DHT22;59977;48.782;9.190;2024-01-30T01:46:34;5.90;99.90
24632;DHT22;59977;48.782;9.190;2024-01-30T01:49:02;5.90;99.90
24632;DHT22;59977;48.782;9.190;2024-01-30T01:51:30;5.90;99.90
24632;DHT22;59977;48.782;9.190;2024-01-30T01:53:57;5.90;99.90
24632;DHT22;59977;48.782;9.190;2024-01-30T01:56:24;5.80;99.90
24632;DHT22;59977;48.782;9.190;2024-01-30T01:58:54;6.60;99.90
24632;DHT22;59977;48.782;9.190;2024-01-30T02:01:21;5.70;99.90
24632;DHT22;59977;48.782;9.190;2024-01-30T02:03:47;5.90;99.90
24632;DHT22;59977;48.782;9.190;2024-01-30T02:06:16;5.70;99.90
24632;DHT22;59977;48.782;9.190;2024-01-30T02:08:42;5.70;99.90
24632;DHT22;59977;48.782;9.190;2024-01-30T02:11:08;5.70;99.90
24632;DHT22;59977;48.782;9.190;2024-01-30T02:13:35;5.70;99.90
24632;DHT22;59977;48.782;9.190;2024-01-30T02:16:01;5.70;99.90
24632;DHT22;59977;48.782;9.190;2024-01-30T02:18:27;5.70;99.90
24632;DHT22;59977;48.782;9.190;2024-01-30T02:20:54;5.70;99.90
24632;DHT22;59977;48.782;9.190;2024-01-30T02:23:21;5.70;99.90
24632;DHT22;59977;48.782;9.190;2024-01-30T02:25:48;5.70;99.90
24632;DHT22;59977;48.782;9.190;2024-01-30T02:28:14;5.60;99.90
24632;DHT22;59977;48.782;9.190;2024-01-30T02:30:40;5.50;99.90
24632;DHT22;59977;48.782;9.190;2024-01-30T02:33:07;5.70;99.90
24632;DHT22;59977;48.782;9.190;2024-01-30T02:35:33;5.60;99.90
24632;DHT22;59977;48.782;9.190;2024-01-30T02:37:59;5.50;99.90
24632;DHT22;59977;48.782;9.190;2024-01-30T02:40:25;5.50;99.90
24632;DHT22;59977;48.782;9.190;2024-01-30T02:42:50;6.00;99.90
24632;DHT22;59977;48.782;9.190;2024-01-30T02:45:16;5.50;99.90
24632;DHT22;59977;48.782;9.190;2024-01-30T02:47:42;5.50;99.90
24632;DHT22;59977;48.782;9.190;2024-01-30T02:50:08;5.50;99.90
24632;DHT22;59977;48.782;9.190;2024-01-30T02:52:34;5.50;99.90
24632;DHT22;59977;48.782;9.190;2024-01-30T02:55:00;5.50;99.90
24632;DHT22;59977;48.782;9.190;2024-01-30T02:57:25;5.60;99.90
24632;DHT22;59977;48.782;9.190;2024-01-30T02:59:51;5.50;99.90
24632;DHT22;59977;48.782;9.190;2024-01-30T03:02:17;5.50;99.90
24632;DHT22;59977;48.782;9.190;2024-01-30T03:04:42;5.50;99.90
24632;DHT22;59977;48.782;9.190;2024-01-30T03:07:08;5.50;99.90
24632;DHT22;59977;48.782;9.190;2024-01-30T03:09:34;5.50;99.90
24632;DHT22;59977;48.782;9.190;2024-01-30T03:12:00;5.50;99.90
24632;DHT22;59977;48.782;9.190;2024-01-30T03:14:26;5.40;99.90
24632;DHT22;59977;48.782;9.190;2024-01-30T03:16:51;5.50;99.90
24632;DHT22;59977;48.782;9.190;2024-01-30T03:19:17;5.40;99.90
24632;DHT22;59977;48.782;9.190;2024-01-30T03:21:44;5.40;99.90
24632;DHT22;59977;48.782;9.190;2024-01-30T03:24:09;5.40;99.90
24632;DHT22;59977;48.782;9.190;2024-01-30T03:26:35;5.40;99.90
24632;DHT22;59977;48.782;9.190;2024-01-30T03:29:01;5.40;99.90
24632;DHT22;59977;48.782;9.190;2024-01-30T03:31:27;5.40;99.90
24632;DHT22;59977;48.782;9.190;2024-01-30T03:33:52;5.40;99.90
24632;DHT22;59977;48.782;9.190;2024-01-30T03:36:18;5.40;99.90
24632;DHT22;59977;48.782;9.190;2024-01-30T03:38:43;5.40;99.90
24632;DHT22;59977;48.782;9.190;2024-01-30T03:41:09;5.30;99.90
24632;DHT22;59977;48.782;9.190;2024-01-30T03:43:35;5.30;99.90
24632;DHT22;59977;48.782;9.190;2024-01-30T03:46:02;5.30;99.90
24632;DHT22;59977;48.782;9.190;2024-01-30T03:48:28;5.30;99.90
24632;DHT22;59977;48.782;9.190;2024-01-30T03:50:54;5.30;99.90
24632;DHT22;59977;48.782;9.190;2024-01-30T03:53:19;5.30;99.90
24632;DHT22;59977;48.782;9.190;2024-01-30T03:55:45;5.30;99.90
24632;DHT22;59977;48.782;9.190;2024-01-30T03:58:11;5.30;99.90
24632;DHT22;59977;48.782;9.190;2024-01-30T04:00:36;5.30;99.90
24632;DHT22;59977;48.782;9.190;2024-01-30T04:03:02;5.30;99.90
24632;DHT22;59977;48.782;9.190;2024-01-30T04:05:28;5.20;99.90
24632;DHT22;59977;48.782;9.190;2024-01-30T04:07:54;5.30;99.90
24632;DHT22;59977;48.782;9.190;2024-01-30T04:10:19;5.30;99.90
24632;DHT22;59977;48.782;9.190;2024-01-30T04:12:45;5.30;99.90
24632;DHT22;59977;48.782;9.190;2024-01-30T04:15:10;6.20;99.90
24632;DHT22;59977;48.782;9.190;2024-01-30T04:17:39;5.30;99.90
24632;DHT22;59977;48.782;9.190;2024-01-30T04:20:05;5.20;99.90
24632;DHT22;59977;48.782;9.190;2024-01-30T04:22:31;5.30;99.90
24632;DHT22;59977;48.782;9.190;2024-01-30T04:24:57;5.30;99.90
24632;DHT22;59977;48.782;9.190;2024-01-30T04:27:23;5.20;99.90
24632;DHT22;59977;48.782;9.190;2024-01-30T04:29:48;5.20;99.90
24632;DHT22;59977;48.782;9.190;2024-01-30T04:32:14;5.20;99.90
24632;DHT22;59977;48.782;9.190;2024-01-30T04:34:39;5.20;99.90
24632;DHT22;59977;48.782;9.190;2024-01-30T04:37:05;5.10;99.90
24632;DHT22;59977;48.782;9.190;2024-01-30T04:39:33;5.20;99.90
24632;DHT22;59977;48.782;9.190;2024-01-30T04:41:58;5.50;99.90
24632;DHT22;59977;48.782;9.190;2024-01-30T04:44:24;5.30;99.90
24632;DHT22;59977;48.782;9.190;2024-01-30T04:46:50;5.50;99.90
24632;DHT22;59977;48.782;9.190;2024-01-30T04:49:16;5.10;99.90
24632;DHT22;59977;48.782;9.190;2024-01-30T04:51:41;5.10;99.90
24632;DHT22;59977;48.782;9.190;2024-01-30T04:54:07;5.10;99.90
24632;DHT22;59977;48.782;9.190;2024-01-30T04:56:32;5.10;99.90
24632;DHT22;59977;48.782;9.190;2024-01-30T04:58:58;5.10;99.90
24632;DHT22;59977;48.782;9.190;2024-01-30T05:01:24;5.10;99.90
24632;DHT22;59977;48.782;9.190;2024-01-30T05:03:50;5.10;99.90
24632;DHT22;59977;48.782;9.190;2024-01-30T05:06:26;5.10;99.90
24632;DHT22;59977;48.782;9.190;2024-01-30T05:08:52;5.00;99.90
24632;DHT22;59977;48.782;9.190;2024-01-30T05:11:18;5.00;99.90
24632;DHT22;59977;48.782;9.190;2024-01-30T05:13:44;5.00;99.90
24632;DHT22;59977;48.782;9.190;2024-01-30T05:16:09;5.00;99.90
24632;DHT22;59977;48.782;9.190;2024-01-30T05:18:35;4.90;99.90
24632;DHT22;59977;48.782;9.190;2024-01-30T05:21:02;4.90;99.90
24632;DHT22;59977;48.782;9.190;2024-01-30T05:23:28;4.90;99.90
24632;DHT22;59977;48.782;9.190;2024-01-30T05:25:53;4.80;99.90
24632;DHT22;59977;48.782;9.190;2024-01-30T05:28:19;5.50;99.90
24632;DHT22;59977;48.782;9.190;2024-01-30T05:30:45;4.90;99.90
24632;DHT22;59977;48.782;9.190;2024-01-30T05:33:10;4.90;99.90
24632;DHT22;59977;48.782;9.190;2024-01-30T05:35:37;4.90;99.90
24632;DHT22;59977;48.782;9.190;2024-01-30T05:38:03;4.90;99.90
24632;DHT22;59977;48.782;9.190;2024-01-30T05:40:30;5.00;99.90
24632;DHT22;59977;48.782;9.190;2024-01-30T05:42:56;4.90;99.90
24632;DHT22;59977;48.782;9.190;2024-01-30T05:45:23;4.90;99.90
24632;DHT22;59977;48.782;9.190;2024-01-30T05:47:49;4.90;99.90
24632;DHT22;59977;48.782;9.190;2024-01-30T05:50:14;4.90;99.90
24632;DHT22;59977;48.782;9.190;2024-01-30T05:52:41;5.00;99.90
24632;DHT22;59977;48.782;9.190;2024-01-30T05:55:07;5.00;99.90
24632;DHT22;59977;48.782;9.190;2024-01-30T05:57:33;5.00;99.90
24632;DHT22;59977;48.782;9.190;2024-01-30T05:59:58;5.00;99.90
24632;DHT22;59977;48.782;9.190;2024-01-30T06:02:24;5.00;99.90
24632;DHT22;59977;48.782;9.190;2024-01-30T06:04:49;5.00;99.90
24632;DHT22;59977;48.782;9.190;2024-01-30T06:07:15;5.00;99.90
24632;DHT22;59977;48.782;9.190;2024-01-30T06:09:42;5.40;99.90
24632;DHT22;59977;48.782;9.190;2024-01-30T06:12:08;5.00;99.90
24632;DHT22;59977;48.782;9.190;2024-01-30T06:14:34;5.00;99.90
24632;DHT22;59977;48.782;9.190;2024-01-30T06:17:00;4.90;99.90
24632;DHT22;59977;48.782;9.190;2024-01-30T06:19:25;5.00;99.90
24632;DHT22;59977;48.782;9.190;2024-01-30T06:21:51;5.00;99.90
24632;DHT22;59977;48.782;9.190;2024-01-30T06:24:16;4.90;99.90
24632;DHT22;59977;48.782;9.190;2024-01-30T06:26:42;4.90;99.90
24632;DHT22;59977;48.782;9.190;2024-01-30T06:29:08;4.90;99.90
24632;DHT22;59977;48.782;9.190;2024-01-30T06:31:40;4.90;99.90
24632;DHT22;59977;48.782;9.190;2024-01-30T06:34:07;4.90;99.90
24632;DHT22;59977;48.782;9.190;2024-01-30T06:36:33;4.80;99.90
24632;DHT22;59977;48.782;9.190;2024-01-30T06:38:58;4.80;99.90
24632;DHT22;59977;48.782;9.190;2024-01-30T06:41:24;4.80;99.90
24632;DHT22;59977;48.782;9.190;2024-01-30T06:43:50;4.80;99.90
24632;DHT22;59977;48.782;9.190;2024-01-30T06:46:16;4.80;99.90
24632;DHT22;59977;48.782;9.190;2024-01-30T06:48:42;4.80;99.90
24632;DHT22;59977;48.782;9.190;2024-01-30T06:51:10;4.80;99.90
24632;DHT22;59977;48.782;9.190;2024-01-30T06:53:36;4.80;99.90
24632;DHT22;59977;48.782;9.190;2024-01-30T06:56:02;4.80;99.90
24632;DHT22;59977;48.782;9.190;2024-01-30T06:58:27;4.80;99.90
24632;DHT22;59977;48.782;9.190;2024-01-30T07:00:53;4.80;99.90
24632;DHT22;59977;48.782;9.190;2024-01-30T07:03:19;4.90;99.90
24632;DHT22;59977;48.782;9.190;2024-01-30T07:05:45;4.80;99.90
24632;DHT22;59977;48.782;9.190;2024-01-30T07:08:10;4.90;99.90
24632;DHT22;59977;48.782;9.190;2024-01-30T07:10:36;4.90;99.90
24632;DHT22;59977;48.782;9.190;2024-01-30T07:13:02;4.90;99.90
24632;DHT22;59977;48.782;9.190;2024-01-30T07:15:27;4.90;99.90
24632;DHT22;59977;48.782;9.190;2024-01-30T07:17:53;4.90;99.90
24632;DHT22;59977;48.782;9.190;2024-01-30T07:20:19;4.90;99.90
24632;DHT22;59977;48.782;9.190;2024-01-30T07:22:45;4.90;99.90
24632;DHT22;59977;48.782;9.190;2024-01-30T07:25:11;5.00;99.90
24632;DHT22;59977;48.782;9.190;2024-01-30T07:27:37;5.00;99.90
24632;DHT22;59977;48.782;9.190;2024-01-30T07:30:03;5.10;99.90
24632;DHT22;59977;48.782;9.190;2024-01-30T07:32:28;5.10;99.90
24632;DHT22;59977;48.782;9.190;2024-01-30T07:34:54;5.10;99.90
24632;DHT22;59977;48.782;9.190;2024-01-30T07:37:19;5.10;99.90
24632;DHT22;59977;48.782;9.190;2024-01-30T07:39:45;5.30;99.90
24632;DHT22;59977;48.782;9.190;2024-01-30T07:42:10;5.20;99.90
24632;DHT22;59977;48.782;9.190;2024-01-30T07:44:36;5.20;99.90
24632;DHT22;59977;48.782;9.190;2024-01-30T07:47:02;5.30;99.90
24632;DHT22;59977;48.782;9.190;2024-01-30T07:49:29;5.20;99.90
24632;DHT22;59977;48.782;9.190;2024-01-30T07:51:55;5.20;99.90
24632;DHT22;59977;48.782;9.190;2024-01-30T07:54:20;5.20;99.90
24632;DHT22;59977;48.782;9.190;2024-01-30T07:56:46;5.40;99.90
24632;DHT22;59977;48.782;9.190;2024-01-30T07:59:12;5.50;99.90
24632;DHT22;59977;48.782;9.190;2024-01-30T08:01:38;5.40;99.90
24632;DHT22;59977;48.782;9.190;2024-01-30T08:04:04;5.40;99.90
24632;DHT22;59977;48.782;9.190;2024-01-30T08:06:29;5.50;99.90
24632;DHT22;59977;48.782;9.190;2024-01-30T08:08:55;5.60;99.90
24632;DHT22;59977;48.782;9.190;2024-01-30T08:11:22;5.60;99.90
24632;DHT22;59977;48.782;9.190;2024-01-30T08:13:52;5.70;99.90
24632;DHT22;59977;48.782;9.190;2024-01-30T08:16:18;5.90;99.90
24632;DHT22;59977;48.782;9.190;2024-01-30T08:18:44;5.80;99.90
24632;DHT22;59977;48.782;9.190;2024-01-30T08:21:09;5.80;99.90
24632;DHT22;59977;48.782;9.190;2024-01-30T08:23:35;5.70;99.90
24632;DHT22;59977;48.782;9.190;2024-01-30T08:26:01;5.70;99.90
24632;DHT22;59977;48.782;9.190;2024-01-30T08:28:26;5.80;99.90
24632;DHT22;59977;48.782;9.190;2024-01-30T08:30:52;5.90;99.90
24632;DHT22;59977;48.782;9.190;2024-01-30T08:33:18;6.00;99.90
24632;DHT22;59977;48.782;9.190;2024-01-30T08:35:43;6.20;99.90
24632;DHT22;59977;48.782;9.190;2024-01-30T08:38:09;6.10;99.90
24632;DHT22;59977;48.782;9.190;2024-01-30T08:40:35;6.10;99.90
24632;DHT22;59977;48.782;9.190;2024-01-30T08:43:00;6.10;99.90
24632;DHT22;59977;48.782;9.190;2024-01-30T08:45:26;6.10;99.90
24632;DHT22;59977;48.782;9.190;2024-01-30T08:47:52;6.10;99.90
24632;DHT22;59977;48.782;9.190;2024-01-30T08:50:17;6.10;99.90
24632;DHT22;59977;48.782;9.190;2024-01-30T08:52:43;6.10;99.90
24632;DHT22;59977;48.782;9.190;2024-01-30T08:55:09;6.20;99.90
24632;DHT22;59977;48.782;9.190;2024-01-30T08:57:34;6.20;99.90
24632;DHT22;59977;48.782;9.190;2024-01-30T09:00:00;6.10;99.90
24632;DHT22;59977;48.782;9.190;2024-01-30T09:02:29;6.10;99.90
24632;DHT22;59977;48.782;9.190;2024-01-30T09:04:55;6.10;99.90
24632;DHT22;59977;48.782;9.190;2024-01-30T09:07:22;6.10;99.90
24632;DHT22;59977;48.782;9.190;2024-01-30T09:09:47;6.20;99.90
24632;DHT22;59977;48.782;9.190;2024-01-30T09:12:14;6.30;99.90
24632;DHT22;59977;48.782;9.190;2024-01-30T09:14:42;6.40;99.90
24632;DHT22;59977;48.782;9.190;2024-01-30T09:17:07;6.50;99.90
24632;DHT22;59977;48.782;9.190;2024-01-30T09:19:33;6.60;99.90
24632;DHT22;59977;48.782;9.190;2024-01-30T09:21:59;6.70;99.90
24632;DHT22;59977;48.782;9.190;2024-01-30T09:24:26;6.90;99.90
24632;DHT22;59977;48.782;9.190;2024-01-30T09:26:52;7.00;99.90
24632;DHT22;59977;48.782;9.190;2024-01-30T09:29:19;7.10;99.90
24632;DHT22;59977;48.782;9.190;2024-01-30T09:31:47;7.10;99.90
24632;DHT22;59977;48.782;9.190;2024-01-30T09:34:13;7.10;99.90
24632;DHT22;59977;48.782;9.190;2024-01-30T09:36:39;7.20;99.90
24632;DHT22;59977;48.782;9.190;2024-01-30T09:39:05;7.30;99.90
24632;DHT22;59977;48.782;9.190;2024-01-30T09:41:45;7.50;99.90
24632;DHT22;59977;48.782;9.190;2024-01-30T09:44:16;7.60;99.90
24632;DHT22;59977;48.782;9.190;2024-01-30T09:46:42;7.60;99.90
24632;DHT22;59977;48.782;9.190;2024-01-30T09:49:09;7.80;99.90
24632;DHT22;59977;48.782;9.190;2024-01-30T09:51:35;7.80;99.90
24632;DHT22;59977;48.782;9.190;2024-01-30T09:54:02;7.80;99.90
24632;DHT22;59977;48.782;9.190;2024-01-30T09:56:28;7.60;99.90
24632;DHT22;59977;48.782;9.190;2024-01-30T09:58:54;7.70;99.90
24632;DHT22;59977;48.782;9.190;2024-01-30T10:01:20;7.70;99.90
24632;DHT22;59977;48.782;9.190;2024-01-30T10:03:46;7.80;99.90
24632;DHT22;59977;48.782;9.190;2024-01-30T10:06:11;7.90;99.90
24632;DHT22;59977;48.782;9.190;2024-01-30T10:08:37;8.00;99.90
24632;DHT22;59977;48.782;9.190;2024-01-30T10:11:03;8.00;99.90
24632;DHT22;59977;48.782;9.190;2024-01-30T10:13:29;8.20;99.90
24632;DHT22;59977;48.782;9.190;2024-01-30T10:15:55;8.30;99.90
24632;DHT22;59977;48.782;9.190;2024-01-30T10:18:22;8.40;99.90
24632;DHT22;59977;48.782;9.190;2024-01-30T10:20:49;8.40;99.90
24632;DHT22;59977;48.782;9.190;2024-01-30T10:23:14;8.40;99.90
24632;DHT22;59977;48.782;9.190;2024-01-30T10:25:40;8.50;99.90
24632;DHT22;59977;48.782;9.190;2024-01-30T10:28:07;8.40;99.90
24632;DHT22;59977;48.782;9.190;2024-01-30T10:30:32;8.50;99.90
24632;DHT22;59977;48.782;9.190;2024-01-30T10:32:58;8.50;99.90
24632;DHT22;59977;48.782;9.190;2024-01-30T10:35:23;8.60;99.90
24632;DHT22;59977;48.782;9.190;2024-01-30T10:37:49;8.60;99.90
24632;DHT22;59977;48.782;9.190;2024-01-30T10:40:15;8.60;99.90
24632;DHT22;59977;48.782;9.190;2024-01-30T10:42:45;8.70;99.90
24632;DHT22;59977;48.782;9.190;2024-01-30T10:45:12;8.70;99.90
24632;DHT22;59977;48.782;9.190;2024-01-30T10:47:40;8.70;99.90
24632;DHT22;59977;48.782;9.190;2024-01-30T10:50:07;8.70;99.90
24632;DHT22;59977;48.782;9.190;2024-01-30T10:52:34;8.70;99.90
24632;DHT22;59977;48.782;9.190;2024-01-30T10:55:00;8.80;99.90
24632;DHT22;59977;48.782;9.190;2024-01-30T10:57:29;8.80;99.90
24632;DHT22;59977;48.782;9.190;2024-01-30T11:00:00;8.80;99.90
24632;DHT22;59977;48.782;9.190;2024-01-30T11:02:27;8.90;99.90
24632;DHT22;59977;48.782;9.190;2024-01-30T11:04:59;8.90;99.90
24632;DHT22;59977;48.782;9.190;2024-01-30T11:07:27;9.00;99.90
24632;DHT22;59977;48.782;9.190;2024-01-30T11:09:59;9.20;99.90
24632;DHT22;59977;48.782;9.190;2024-01-30T11:12:37;9.10;99.90
24632;DHT22;59977;48.782;9.190;2024-01-30T11:15:11;9.20;99.90
24632;DHT22;59977;48.782;9.190;2024-01-30T11:17:41;9.20;99.90
24632;DHT22;59977;48.782;9.190;2024-01-30T11:20:11;9.20;99.90
24632;DHT22;59977;48.782;9.190;2024-01-30T11:22:37;9.20;99.90
24632;DHT22;59977;48.782;9.190;2024-01-30T11:25:03;9.20;99.90
24632;DHT22;59977;48.782;9.190;2024-01-30T11:27:30;9.30;99.90
24632;DHT22;59977;48.782;9.190;2024-01-30T11:30:02;9.30;99.90
24632;DHT22;59977;48.782;9.190;2024-01-30T11:32:28;9.30;99.90
24632;DHT22;59977;48.782;9.190;2024-01-30T11:34:54;9.50;99.90
24632;DHT22;59977;48.782;9.190;2024-01-30T11:37:21;9.50;99.90
24632;DHT22;59977;48.782;9.190;2024-01-30T11:39:51;9.50;99.90
24632;DHT22;59977;48.782;9.190;2024-01-30T11:42:17;9.60;99.90
24632;DHT22;59977;48.782;9.190;2024-01-30T11:44:47;9.50;99.90
24632;DHT22;59977;48.782;9.190;2024-01-30T11:47:13;9.60;99.90
24632;DHT22;59977;48.782;9.190;2024-01-30T11:49:39;9.60;99.90
24632;DHT22;59977;48.782;9.190;2024-01-30T11:52:05;9.70;99.90
24632;DHT22;59977;48.782;9.190;2024-01-30T11:54:31;9.60;99.90
24632;DHT22;59977;48.782;9.190;2024-01-30T11:56:57;9.70;99.90
24632;DHT22;59977;48.782;9.190;2024-01-30T11:59:22;9.70;99.90
24632;DHT22;59977;48.782;9.190;2024-01-30T12:01:48;9.70;99.90
24632;DHT22;59977;48.782;9.190;2024-01-30T12:04:14;9.80;99.90
24632;DHT22;59977;48.782;9.190;2024-01-30T12:06:40;9.80;99.90
24632;DHT22;59977;48.782;9.190;2024-01-30T12:09:06;9.80;99.90
24632;DHT22;59977;48.782;9.190;2024-01-30T12:11:45;10.00;99.90
24632;DHT22;59977;48.782;9.190;2024-01-30T12:14:12;10.10;99.90
24632;DHT22;59977;48.782;9.190;2024-01-30T12:16:37;10.00;99.90
24632;DHT22;59977;48.782;9.190;2024-01-30T12:19:03;10.00;99.90
24632;DHT22;59977;48.782;9.190;2024-01-30T12:21:29;10.00;99.90
24632;DHT22;59977;48.782;9.190;2024-01-30T12:23:59;10.10;99.90
24632;DHT22;59977;48.782;9.190;2024-01-30T12:26:24;10.10;99.90
24632;DHT22;59977;48.782;9.190;2024-01-30T12:28:56;10.20;99.90
24632;DHT22;59977;48.782;9.190;2024-01-30T12:31:32;10.20;99.90
24632;DHT22;59977;48.782;9.190;2024-01-30T12:34:00;10.40;99.90
24632;DHT22;59977;48.782;9.190;2024-01-30T12:36:25;10.30;99.90
24632;DHT22;59977;48.782;9.190;2024-01-30T12:38:51;10.40;99.90
24632;DHT22;59977;48.782;9.190;2024-01-30T12:41:17;10.30;99.90
24632;DHT22;59977;48.782;9.190;2024-01-30T12:43:43;10.40;99.90
24632;DHT22;59977;48.782;9.190;2024-01-30T12:46:09;10.40;99.90
24632;DHT22;59977;48.782;9.190;2024-01-30T12:48:35;10.40;99.90
24632;DHT22;59977;48.782;9.190;2024-01-30T12:51:01;10.50;99.90
24632;DHT22;59977;48.782;9.190;2024-01-30T12:53:26;10.50;99.90
24632;DHT22;59977;48.782;9.190;2024-01-30T12:55:52;10.50;99.90
24632;DHT22;59977;48.782;9.190;2024-01-30T12:58:19;10.50;99.90
24632;DHT22;59977;48.782;9.190;2024-01-30T13:00:45;10.50;99.90
24632;DHT22;59977;48.782;9.190;2024-01-30T13:03:11;10.50;99.90
24632;DHT22;59977;48.782;9.190;2024-01-30T13:05:37;10.70;99.90
24632;DHT22;59977;48.782;9.190;2024-01-30T13:08:03;10.80;99.90
24632;DHT22;59977;48.782;9.190;2024-01-30T13:10:28;10.70;99.90
24632;DHT22;59977;48.782;9.190;2024-01-30T13:12:54;10.80;99.90
24632;DHT22;59977;48.782;9.190;2024-01-30T13:15:20;10.80;99.90
24632;DHT22;59977;48.782;9.190;2024-01-30T13:17:45;10.90;99.90
24632;DHT22;59977;48.782;9.190;2024-01-30T13:20:13;10.90;99.90
24632;DHT22;59977;48.782;9.190;2024-01-30T13:22:43;11.00;99.90
24632;DHT22;59977;48.782;9.190;2024-01-30T13:25:08;11.10;99.90
24632;DHT22;59977;48.782;9.190;2024-01-30T13:27:35;11.20;99.90
24632;DHT22;59977;48.782;9.190;2024-01-30T13:30:00;11.20;99.90
24632;DHT22;59977;48.782;9.190;2024-01-30T13:32:26;11.20;99.90
24632;DHT22;59977;48.782;9.190;2024-01-30T13:34:52;11.30;99.90
24632;DHT22;59977;48.782;9.190;2024-01-30T13:37:17;11.30;99.90
24632;DHT22;59977;48.782;9.190;2024-01-30T13:39:43;11.30;99.90
24632;DHT22;59977;48.782;9.190;2024-01-30T13:42:09;11.30;99.90
24632;DHT22;59977;48.782;9.190;2024-01-30T13:44:35;11.20;99.90
24632;DHT22;59977;48.782;9.190;2024-01-30T13:47:01;11.20;99.90
24632;DHT22;59977;48.782;9.190;2024-01-30T13:49:27;11.30;99.90
24632;DHT22;59977;48.782;9.190;2024-01-30T13:51:53;11.40;99.90
24632;DHT22;59977;48.782;9.190;2024-01-30T13:54:18;11.40;99.90
24632;DHT22;59977;48.782;9.190;2024-01-30T13:56:44;11.40;99.90
24632;DHT22;59977;48.782;9.190;2024-01-30T13:59:10;11.50;99.90
24632;DHT22;59977;48.782;9.190;2024-01-30T14:01:36;11.50;99.90
24632;DHT22;59977;48.782;9.190;2024-01-30T14:04:01;11.50;99.90
24632;DHT22;59977;48.782;9.190;2024-01-30T14:06:27;11.40;99.90
24632;DHT22;59977;48.782;9.190;2024-01-30T14:08:52;11.40;99.90
24632;DHT22;59977;48.782;9.190;2024-01-30T14:11:19;11.40;99.90
24632;DHT22;59977;48.782;9.190;2024-01-30T14:13:44;11.30;99.90
24632;DHT22;59977;48.782;9.190;2024-01-30T14:16:10;11.30;99.90
24632;DHT22;59977;48.782;9.190;2024-01-30T14:18:36;11.30;99.90
24632;DHT22;59977;48.782;9.190;2024-01-30T14:21:01;11.30;99.90
24632;DHT22;59977;48.782;9.190;2024-01-30T14:23:27;11.30;99.90
24632;DHT22;59977;48.782;9.190;2024-01-30T14:25:52;11.30;99.90
24632;DHT22;59977;48.782;9.190;2024-01-30T14:28:18;11.30;99.90
24632;DHT22;59977;48.782;9.190;2024-01-30T14:30:44;11.20;99.90
24632;DHT22;59977;48.782;9.190;2024-01-30T14:33:09;11.30;99.90
24632;DHT22;59977;48.782;9.190;2024-01-30T14:35:35;11.30;99.90
24632;DHT22;59977;48.782;9.190;2024-01-30T14:38:00;11.30;99.90
24632;DHT22;59977;48.782;9.190;2024-01-30T14:40:27;11.20;99.90
24632;DHT22;59977;48.782;9.190;2024-01-30T14:42:52;11.30;99.90
24632;DHT22;59977;48.782;9.190;2024-01-30T14:45:18;11.10;99.90
24632;DHT22;59977;48.782;9.190;2024-01-30T14:47:44;11.20;99.90
24632;DHT22;59977;48.782;9.190;2024-01-30T14:50:10;11.10;99.90
24632;DHT22;59977;48.782;9.190;2024-01-30T14:52:36;11.10;99.90
24632;DHT22;59977;48.782;9.190;2024-01-30T14:55:05;11.10;99.90
24632;DHT22;59977;48.782;9.190;2024-01-30T14:57:30;11.00;99.90
24632;DHT22;59977;48.782;9.190;2024-01-30T14:59:56;11.10;99.90
24632;DHT22;59977;48.782;9.190;2024-01-30T15:02:22;11.00;99.90
24632;DHT22;59977;48.782;9.190;2024-01-30T15:04:48;10.80;99.90
24632;DHT22;59977;48.782;9.190;2024-01-30T15:07:13;10.90;99.90
24632;DHT22;59977;48.782;9.190;2024-01-30T15:09:39;10.90;99.90
24632;DHT22;59977;48.782;9.190;2024-01-30T15:12:05;10.80;99.90
24632;DHT22;59977;48.782;9.190;2024-01-30T15:14:30;10.80;99.90
24632;DHT22;59977;48.782;9.190;2024-01-30T15:16:56;10.70;99.90
24632;DHT22;59977;48.782;9.190;2024-01-30T15:19:21;10.70;99.90
24632;DHT22;59977;48.782;9.190;2024-01-30T15:21:47;10.60;99.90
24632;DHT22;59977;48.782;9.190;2024-01-30T15:24:13;10.60;99.90
24632;DHT22;59977;48.782;9.190;2024-01-30T15:26:41;10.50;99.90
24632;DHT22;59977;48.782;9.190;2024-01-30T15:29:06;10.50;99.90
24632;DHT22;59977;48.782;9.190;2024-01-30T15:31:32;10.50;99.90
24632;DHT22;59977;48.782;9.190;2024-01-30T15:33:58;10.50;99.90
24632;DHT22;59977;48.782;9.190;2024-01-30T15:36:23;10.50;99.90